sensor_id;sensor_type;location;lat;lon;timestamp;P1;durP1;ratioP1;P2;durP2;ratioP2
18507;SDS011;9383;50.928;12.116;2022-10-24T00:00:50;5.38;;;2.17;;
18507;SDS011;9383;50.928;12.116;2022-10-24T00:03:17;3.22;;;2.25;;
18507;SDS011;9383;50.928;12.116;2022-10-24T00:05:44;6.13;;;1.98;;
18507;SDS011;9383;50.928;12.116;2022-10-24T00:08:12;4.03;;;2.13;;
18507;SDS011;9383;50.928;12.116;2022-10-24T00:10:40;2.47;;;1.80;;
18507;SDS011;9383;50.928;12.116;2022-10-24T00:13:08;2.75;;;1.90;;
18507;SDS011;9383;50.928;12.116;2022-10-24T00:15:36;3.22;;;2.30;;
18507;SDS011;9383;50.928;12.116;2022-10-24T00:18:03;3.83;;;2.15;;
18507;SDS011;9383;50.928;12.116;2022-10-24T00:20:30;2.30;;;2.05;;
18507;SDS011;9383;50.928;12.116;2022-10-24T00:22:57;2.42;;;2.22;;
18507;SDS011;9383;50.928;12.116;2022-10-24T00:25:26;2.45;;;1.98;;
18507;SDS011;9383;50.928;12.116;2022-10-24T00:27:52;4.18;;;2.75;;
18507;SDS011;9383;50.928;12.116;2022-10-24T00:30:19;5.15;;;2.20;;
18507;SDS011;9383;50.928;12.116;2022-10-24T00:32:46;4.15;;;2.10;;
18507;SDS011;9383;50.928;12.116;2022-10-24T00:35:12;2.50;;;2.10;;
18507;SDS011;9383;50.928;12.116;2022-10-24T00:37:39;5.70;;;2.40;;
18507;SDS011;9383;50.928;12.116;2022-10-24T00:40:05;2.55;;;2.13;;
18507;SDS011;9383;50.928;12.116;2022-10-24T00:42:34;2.83;;;2.33;;
18507;SDS011;9383;50.928;12.116;2022-10-24T00:45:01;3.00;;;2.28;;
18507;SDS011;9383;50.928;12.116;2022-10-24T00:48:08;4.18;;;2.20;;
18507;SDS011;9383;50.928;12.116;2022-10-24T00:53:59;4.28;;;2.35;;
18507;SDS011;9383;50.928;12.116;2022-10-24T00:56:33;2.60;;;2.40;;
18507;SDS011;9383;50.928;12.116;2022-10-24T00:59:04;3.95;;;2.28;;
18507;SDS011;9383;50.928;12.116;2022-10-24T01:01:34;5.80;;;2.10;;
18507;SDS011;9383;50.928;12.116;2022-10-24T01:04:02;4.43;;;1.90;;
18507;SDS011;9383;50.928;12.116;2022-10-24T01:20:16;3.00;;;2.30;;
18507;SDS011;9383;50.928;12.116;2022-10-24T01:31:46;4.47;;;2.20;;
18507;SDS011;9383;50.928;12.116;2022-10-24T01:34:32;3.17;;;2.10;;
18507;SDS011;9383;50.928;12.116;2022-10-24T01:37:02;4.65;;;2.03;;
18507;SDS011;9383;50.928;12.116;2022-10-24T01:39:39;3.50;;;2.33;;
18507;SDS011;9383;50.928;12.116;2022-10-24T01:42:13;2.65;;;2.10;;
18507;SDS011;9383;50.928;12.116;2022-10-24T01:44:44;2.78;;;2.25;;
18507;SDS011;9383;50.928;12.116;2022-10-24T01:47:15;2.60;;;2.00;;
18507;SDS011;9383;50.928;12.116;2022-10-24T01:49:48;1.80;;;1.70;;
18507;SDS011;9383;50.928;12.116;2022-10-24T01:52:20;3.22;;;1.90;;
18507;SDS011;9383;50.928;12.116;2022-10-24T01:54:48;3.38;;;2.00;;
18507;SDS011;9383;50.928;12.116;2022-10-24T01:57:16;2.10;;;1.90;;
18507;SDS011;9383;50.928;12.116;2022-10-24T01:59:46;2.92;;;1.88;;
18507;SDS011;9383;50.928;12.116;2022-10-24T02:02:14;2.42;;;2.22;;
18507;SDS011;9383;50.928;12.116;2022-10-24T02:04:50;2.83;;;1.60;;
18507;SDS011;9383;50.928;12.116;2022-10-24T02:07:19;3.60;;;1.80;;
18507;SDS011;9383;50.928;12.116;2022-10-24T02:09:49;5.78;;;2.28;;
18507;SDS011;9383;50.928;12.116;2022-10-24T02:12:20;3.45;;;2.00;;
18507;SDS011;9383;50.928;12.116;2022-10-24T02:14:52;3.10;;;1.95;;
18507;SDS011;9383;50.928;12.116;2022-10-24T02:17:29;2.83;;;1.80;;
18507;SDS011;9383;50.928;12.116;2022-10-24T02:19:56;5.85;;;2.00;;
18507;SDS011;9383;50.928;12.116;2022-10-24T02:22:28;4.28;;;2.42;;
18507;SDS011;9383;50.928;12.116;2022-10-24T02:25:16;5.78;;;2.20;;
18507;SDS011;9383;50.928;12.116;2022-10-24T02:27:54;3.17;;;2.35;;
18507;SDS011;9383;50.928;12.116;2022-10-24T02:30:29;3.30;;;2.15;;
18507;SDS011;9383;50.928;12.116;2022-10-24T02:33:00;4.57;;;2.20;;
18507;SDS011;9383;50.928;12.116;2022-10-24T02:35:30;2.50;;;1.80;;
18507;SDS011;9383;50.928;12.116;2022-10-24T02:38:43;4.68;;;2.45;;
18507;SDS011;9383;50.928;12.116;2022-10-24T02:41:03;6.10;;;2.50;;
18507;SDS011;9383;50.928;12.116;2022-10-24T02:43:35;7.22;;;2.20;;
18507;SDS011;9383;50.928;12.116;2022-10-24T02:46:05;5.57;;;2.10;;
18507;SDS011;9383;50.928;12.116;2022-10-24T02:48:35;2.97;;;2.22;;
18507;SDS011;9383;50.928;12.116;2022-10-24T02:51:05;4.03;;;2.40;;
18507;SDS011;9383;50.928;12.116;2022-10-24T02:53:35;4.32;;;2.60;;
18507;SDS011;9383;50.928;12.116;2022-10-24T02:56:03;5.10;;;2.20;;
18507;SDS011;9383;50.928;12.116;2022-10-24T02:58:30;4.07;;;2.33;;
18507;SDS011;9383;50.928;12.116;2022-10-24T03:00:58;5.28;;;2.38;;
18507;SDS011;9383;50.928;12.116;2022-10-24T03:03:25;8.52;;;2.50;;
18507;SDS011;9383;50.928;12.116;2022-10-24T03:05:51;4.63;;;2.30;;
18507;SDS011;9383;50.928;12.116;2022-10-24T03:08:18;5.30;;;1.90;;
18507;SDS011;9383;50.928;12.116;2022-10-24T03:10:45;3.33;;;2.08;;
18507;SDS011;9383;50.928;12.116;2022-10-24T03:13:11;6.03;;;2.42;;
18507;SDS011;9383;50.928;12.116;2022-10-24T03:15:38;6.63;;;2.47;;
18507;SDS011;9383;50.928;12.116;2022-10-24T03:18:04;4.10;;;1.77;;
18507;SDS011;9383;50.928;12.116;2022-10-24T03:20:31;2.97;;;1.77;;
18507;SDS011;9383;50.928;12.116;2022-10-24T03:22:58;4.93;;;1.88;;
18507;SDS011;9383;50.928;12.116;2022-10-24T03:25:25;5.05;;;2.17;;
18507;SDS011;9383;50.928;12.116;2022-10-24T03:27:52;4.47;;;2.00;;
18507;SDS011;9383;50.928;12.116;2022-10-24T03:30:19;3.00;;;1.77;;
18507;SDS011;9383;50.928;12.116;2022-10-24T03:32:45;7.03;;;2.00;;
18507;SDS011;9383;50.928;12.116;2022-10-24T03:35:12;5.18;;;2.15;;
18507;SDS011;9383;50.928;12.116;2022-10-24T03:37:38;3.47;;;2.00;;
18507;SDS011;9383;50.928;12.116;2022-10-24T03:40:05;3.88;;;2.03;;
18507;SDS011;9383;50.928;12.116;2022-10-24T03:42:32;5.53;;;2.33;;
18507;SDS011;9383;50.928;12.116;2022-10-24T03:44:59;3.47;;;2.08;;
18507;SDS011;9383;50.928;12.116;2022-10-24T03:47:25;3.90;;;2.00;;
18507;SDS011;9383;50.928;12.116;2022-10-24T03:49:52;3.83;;;2.03;;
18507;SDS011;9383;50.928;12.116;2022-10-24T03:52:18;4.65;;;2.15;;
18507;SDS011;9383;50.928;12.116;2022-10-24T03:54:45;3.80;;;1.98;;
18507;SDS011;9383;50.928;12.116;2022-10-24T03:57:12;5.30;;;2.25;;
18507;SDS011;9383;50.928;12.116;2022-10-24T03:59:38;2.83;;;2.00;;
18507;SDS011;9383;50.928;12.116;2022-10-24T04:02:05;4.40;;;2.17;;
18507;SDS011;9383;50.928;12.116;2022-10-24T04:04:31;3.15;;;2.00;;
18507;SDS011;9383;50.928;12.116;2022-10-24T04:06:58;2.60;;;1.88;;
18507;SDS011;9383;50.928;12.116;2022-10-24T04:09:25;3.03;;;1.80;;
18507;SDS011;9383;50.928;12.116;2022-10-24T04:11:52;3.20;;;1.70;;
18507;SDS011;9383;50.928;12.116;2022-10-24T04:14:20;4.93;;;2.10;;
18507;SDS011;9383;50.928;12.116;2022-10-24T04:16:49;5.68;;;2.47;;
18507;SDS011;9383;50.928;12.116;2022-10-24T04:19:16;5.05;;;1.98;;
18507;SDS011;9383;50.928;12.116;2022-10-24T04:21:46;3.70;;;1.73;;
18507;SDS011;9383;50.928;12.116;2022-10-24T04:24:13;5.35;;;2.30;;
18507;SDS011;9383;50.928;12.116;2022-10-24T04:26:40;8.57;;;2.40;;
18507;SDS011;9383;50.928;12.116;2022-10-24T04:29:06;5.40;;;2.20;;
18507;SDS011;9383;50.928;12.116;2022-10-24T04:31:33;4.30;;;1.88;;
18507;SDS011;9383;50.928;12.116;2022-10-24T04:34:00;5.93;;;1.80;;
18507;SDS011;9383;50.928;12.116;2022-10-24T04:36:27;7.65;;;2.42;;
18507;SDS011;9383;50.928;12.116;2022-10-24T04:38:55;5.50;;;2.05;;
18507;SDS011;9383;50.928;12.116;2022-10-24T04:41:21;2.92;;;1.88;;
18507;SDS011;9383;50.928;12.116;2022-10-24T04:43:48;4.40;;;1.63;;
18507;SDS011;9383;50.928;12.116;2022-10-24T04:46:16;2.15;;;1.80;;
18507;SDS011;9383;50.928;12.116;2022-10-24T04:48:42;3.53;;;2.05;;
18507;SDS011;9383;50.928;12.116;2022-10-24T04:51:10;5.43;;;1.73;;
18507;SDS011;9383;50.928;12.116;2022-10-24T04:53:36;3.75;;;1.90;;
18507;SDS011;9383;50.928;12.116;2022-10-24T04:56:04;3.38;;;1.88;;
18507;SDS011;9383;50.928;12.116;2022-10-24T04:58:31;4.65;;;1.90;;
18507;SDS011;9383;50.928;12.116;2022-10-24T05:00:58;2.35;;;2.03;;
18507;SDS011;9383;50.928;12.116;2022-10-24T05:03:26;3.33;;;1.60;;
18507;SDS011;9383;50.928;12.116;2022-10-24T05:05:53;2.38;;;1.48;;
18507;SDS011;9383;50.928;12.116;2022-10-24T05:08:19;4.28;;;2.00;;
18507;SDS011;9383;50.928;12.116;2022-10-24T05:10:46;1.80;;;1.65;;
18507;SDS011;9383;50.928;12.116;2022-10-24T05:13:13;4.70;;;1.80;;
18507;SDS011;9383;50.928;12.116;2022-10-24T05:15:39;3.25;;;1.77;;
18507;SDS011;9383;50.928;12.116;2022-10-24T05:18:06;3.63;;;1.70;;
18507;SDS011;9383;50.928;12.116;2022-10-24T05:20:34;2.53;;;1.80;;
18507;SDS011;9383;50.928;12.116;2022-10-24T05:23:02;3.90;;;1.85;;
18507;SDS011;9383;50.928;12.116;2022-10-24T05:25:29;3.00;;;2.10;;
18507;SDS011;9383;50.928;12.116;2022-10-24T05:27:56;2.15;;;1.70;;
18507;SDS011;9383;50.928;12.116;2022-10-24T05:30:22;6.20;;;2.10;;
18507;SDS011;9383;50.928;12.116;2022-10-24T05:32:49;2.90;;;1.90;;
18507;SDS011;9383;50.928;12.116;2022-10-24T05:35:16;3.40;;;2.08;;
18507;SDS011;9383;50.928;12.116;2022-10-24T05:37:44;2.83;;;2.03;;
18507;SDS011;9383;50.928;12.116;2022-10-24T05:40:11;4.93;;;2.10;;
18507;SDS011;9383;50.928;12.116;2022-10-24T05:42:38;4.97;;;1.88;;
18507;SDS011;9383;50.928;12.116;2022-10-24T05:45:06;4.95;;;1.90;;
18507;SDS011;9383;50.928;12.116;2022-10-24T05:47:34;6.22;;;1.80;;
18507;SDS011;9383;50.928;12.116;2022-10-24T05:50:01;5.85;;;1.95;;
18507;SDS011;9383;50.928;12.116;2022-10-24T05:52:29;4.63;;;1.90;;
18507;SDS011;9383;50.928;12.116;2022-10-24T05:55:10;5.85;;;2.03;;
18507;SDS011;9383;50.928;12.116;2022-10-24T05:57:37;3.60;;;1.95;;
18507;SDS011;9383;50.928;12.116;2022-10-24T06:00:05;3.95;;;1.75;;
18507;SDS011;9383;50.928;12.116;2022-10-24T06:02:35;2.42;;;2.22;;
18507;SDS011;9383;50.928;12.116;2022-10-24T06:05:02;6.60;;;2.05;;
18507;SDS011;9383;50.928;12.116;2022-10-24T06:07:28;5.07;;;1.73;;
18507;SDS011;9383;50.928;12.116;2022-10-24T06:09:56;4.45;;;1.88;;
18507;SDS011;9383;50.928;12.116;2022-10-24T06:12:23;3.92;;;1.83;;
18507;SDS011;9383;50.928;12.116;2022-10-24T06:14:53;4.47;;;1.75;;
18507;SDS011;9383;50.928;12.116;2022-10-24T06:17:21;4.00;;;1.95;;
18507;SDS011;9383;50.928;12.116;2022-10-24T06:19:47;3.92;;;2.15;;
18507;SDS011;9383;50.928;12.116;2022-10-24T06:22:15;3.15;;;1.80;;
18507;SDS011;9383;50.928;12.116;2022-10-24T06:24:43;3.22;;;1.98;;
18507;SDS011;9383;50.928;12.116;2022-10-24T06:27:09;7.70;;;2.20;;
18507;SDS011;9383;50.928;12.116;2022-10-24T06:29:36;2.83;;;1.70;;
18507;SDS011;9383;50.928;12.116;2022-10-24T06:32:03;7.82;;;2.35;;
18507;SDS011;9383;50.928;12.116;2022-10-24T06:34:30;4.18;;;2.00;;
18507;SDS011;9383;50.928;12.116;2022-10-24T06:36:58;7.13;;;2.00;;
18507;SDS011;9383;50.928;12.116;2022-10-24T06:39:26;4.45;;;1.98;;
18507;SDS011;9383;50.928;12.116;2022-10-24T06:41:52;3.92;;;2.10;;
18507;SDS011;9383;50.928;12.116;2022-10-24T06:44:19;3.47;;;2.00;;
18507;SDS011;9383;50.928;12.116;2022-10-24T06:46:45;2.83;;;1.85;;
18507;SDS011;9383;50.928;12.116;2022-10-24T06:49:12;3.20;;;2.03;;
18507;SDS011;9383;50.928;12.116;2022-10-24T06:51:39;4.22;;;1.90;;
18507;SDS011;9383;50.928;12.116;2022-10-24T06:54:06;3.17;;;1.95;;
18507;SDS011;9383;50.928;12.116;2022-10-24T06:56:32;5.68;;;2.13;;
18507;SDS011;9383;50.928;12.116;2022-10-24T06:58:59;3.17;;;2.00;;
18507;SDS011;9383;50.928;12.116;2022-10-24T07:01:25;3.15;;;1.90;;
18507;SDS011;9383;50.928;12.116;2022-10-24T07:03:52;5.90;;;1.80;;
18507;SDS011;9383;50.928;12.116;2022-10-24T07:06:22;1.80;;;1.70;;
18507;SDS011;9383;50.928;12.116;2022-10-24T07:08:51;2.53;;;1.80;;
18507;SDS011;9383;50.928;12.116;2022-10-24T07:11:19;4.85;;;2.03;;
18507;SDS011;9383;50.928;12.116;2022-10-24T07:13:46;5.40;;;2.10;;
18507;SDS011;9383;50.928;12.116;2022-10-24T07:16:13;6.18;;;2.38;;
18507;SDS011;9383;50.928;12.116;2022-10-24T07:18:41;5.15;;;2.10;;
18507;SDS011;9383;50.928;12.116;2022-10-24T07:21:10;6.57;;;2.25;;
18507;SDS011;9383;50.928;12.116;2022-10-24T07:23:57;3.42;;;2.13;;
18507;SDS011;9383;50.928;12.116;2022-10-24T07:26:25;3.28;;;2.17;;
18507;SDS011;9383;50.928;12.116;2022-10-24T07:28:53;3.45;;;2.03;;
18507;SDS011;9383;50.928;12.116;2022-10-24T07:31:23;5.03;;;2.22;;
18507;SDS011;9383;50.928;12.116;2022-10-24T07:33:51;4.88;;;2.10;;
18507;SDS011;9383;50.928;12.116;2022-10-24T07:36:19;7.07;;;2.38;;
18507;SDS011;9383;50.928;12.116;2022-10-24T07:38:48;5.60;;;2.28;;
18507;SDS011;9383;50.928;12.116;2022-10-24T07:41:15;6.50;;;1.92;;
18507;SDS011;9383;50.928;12.116;2022-10-24T07:43:42;3.97;;;2.15;;
18507;SDS011;9383;50.928;12.116;2022-10-24T07:46:11;2.90;;;1.80;;
18507;SDS011;9383;50.928;12.116;2022-10-24T07:48:40;5.55;;;1.85;;
18507;SDS011;9383;50.928;12.116;2022-10-24T07:51:10;4.10;;;1.70;;
18507;SDS011;9383;50.928;12.116;2022-10-24T07:53:39;3.47;;;1.90;;
18507;SDS011;9383;50.928;12.116;2022-10-24T07:56:06;4.50;;;1.70;;
18507;SDS011;9383;50.928;12.116;2022-10-24T07:58:36;2.92;;;1.60;;
18507;SDS011;9383;50.928;12.116;2022-10-24T08:01:07;2.55;;;1.70;;
18507;SDS011;9383;50.928;12.116;2022-10-24T08:03:35;6.38;;;2.08;;
18507;SDS011;9383;50.928;12.116;2022-10-24T08:06:09;4.15;;;1.80;;
18507;SDS011;9383;50.928;12.116;2022-10-24T08:08:38;4.07;;;1.50;;
18507;SDS011;9383;50.928;12.116;2022-10-24T08:11:06;4.53;;;1.80;;
18507;SDS011;9383;50.928;12.116;2022-10-24T08:13:33;3.38;;;1.65;;
18507;SDS011;9383;50.928;12.116;2022-10-24T08:16:00;4.03;;;1.80;;
18507;SDS011;9383;50.928;12.116;2022-10-24T08:18:29;6.50;;;2.05;;
18507;SDS011;9383;50.928;12.116;2022-10-24T08:20:56;5.18;;;2.03;;
18507;SDS011;9383;50.928;12.116;2022-10-24T08:23:24;4.32;;;1.90;;
18507;SDS011;9383;50.928;12.116;2022-10-24T08:25:52;2.83;;;1.75;;
18507;SDS011;9383;50.928;12.116;2022-10-24T08:28:19;4.18;;;1.83;;
18507;SDS011;9383;50.928;12.116;2022-10-24T08:30:58;3.60;;;1.67;;
18507;SDS011;9383;50.928;12.116;2022-10-24T08:33:28;3.47;;;2.45;;
18507;SDS011;9383;50.928;12.116;2022-10-24T08:35:55;5.70;;;2.25;;
18507;SDS011;9383;50.928;12.116;2022-10-24T08:38:25;5.07;;;1.85;;
18507;SDS011;9383;50.928;12.116;2022-10-24T08:40:52;6.25;;;1.92;;
18507;SDS011;9383;50.928;12.116;2022-10-24T08:43:20;4.85;;;1.85;;
18507;SDS011;9383;50.928;12.116;2022-10-24T08:48:25;2.53;;;2.00;;
18507;SDS011;9383;50.928;12.116;2022-10-24T08:51:02;3.88;;;1.88;;
18507;SDS011;9383;50.928;12.116;2022-10-24T08:53:45;4.70;;;1.92;;
18507;SDS011;9383;50.928;12.116;2022-10-24T08:56:16;1.83;;;1.50;;
18507;SDS011;9383;50.928;12.116;2022-10-24T08:58:43;6.13;;;2.05;;
18507;SDS011;9383;50.928;12.116;2022-10-24T09:01:16;3.50;;;1.80;;
18507;SDS011;9383;50.928;12.116;2022-10-24T09:03:56;4.55;;;2.25;;
18507;SDS011;9383;50.928;12.116;2022-10-24T09:06:28;4.07;;;1.92;;
18507;SDS011;9383;50.928;12.116;2022-10-24T09:08:57;5.35;;;2.08;;
18507;SDS011;9383;50.928;12.116;2022-10-24T09:11:29;4.50;;;2.17;;
18507;SDS011;9383;50.928;12.116;2022-10-24T09:14:20;6.53;;;2.40;;
18507;SDS011;9383;50.928;12.116;2022-10-24T09:19:39;2.63;;;1.52;;
18507;SDS011;9383;50.928;12.116;2022-10-24T09:22:09;3.50;;;2.20;;
18507;SDS011;9383;50.928;12.116;2022-10-24T09:27:19;5.63;;;2.13;;
18507;SDS011;9383;50.928;12.116;2022-10-24T09:29:51;4.30;;;1.55;;
18507;SDS011;9383;50.928;12.116;2022-10-24T09:32:22;5.03;;;2.00;;
18507;SDS011;9383;50.928;12.116;2022-10-24T09:34:57;3.08;;;2.28;;
18507;SDS011;9383;50.928;12.116;2022-10-24T09:37:39;4.32;;;2.00;;
18507;SDS011;9383;50.928;12.116;2022-10-24T09:40:23;3.25;;;2.30;;
18507;SDS011;9383;50.928;12.116;2022-10-24T09:45:50;6.45;;;2.38;;
18507;SDS011;9383;50.928;12.116;2022-10-24T09:48:32;6.63;;;2.28;;
18507;SDS011;9383;50.928;12.116;2022-10-24T09:51:09;3.92;;;2.10;;
18507;SDS011;9383;50.928;12.116;2022-10-24T09:53:59;4.15;;;1.88;;
18507;SDS011;9383;50.928;12.116;2022-10-24T09:56:35;4.65;;;1.77;;
18507;SDS011;9383;50.928;12.116;2022-10-24T10:01:49;3.80;;;1.85;;
18507;SDS011;9383;50.928;12.116;2022-10-24T10:04:16;4.13;;;1.83;;
18507;SDS011;9383;50.928;12.116;2022-10-24T10:06:44;5.45;;;2.45;;
18507;SDS011;9383;50.928;12.116;2022-10-24T10:09:15;2.83;;;1.83;;
18507;SDS011;9383;50.928;12.116;2022-10-24T10:11:56;2.83;;;1.83;;
18507;SDS011;9383;50.928;12.116;2022-10-24T10:14:25;5.93;;;2.47;;
18507;SDS011;9383;50.928;12.116;2022-10-24T10:17:00;5.05;;;1.80;;
18507;SDS011;9383;50.928;12.116;2022-10-24T10:19:31;3.13;;;1.85;;
18507;SDS011;9383;50.928;12.116;2022-10-24T10:22:03;5.30;;;2.00;;
18507;SDS011;9383;50.928;12.116;2022-10-24T10:24:50;3.35;;;1.67;;
18507;SDS011;9383;50.928;12.116;2022-10-24T10:27:29;3.20;;;1.92;;
18507;SDS011;9383;50.928;12.116;2022-10-24T10:30:07;3.60;;;1.73;;
18507;SDS011;9383;50.928;12.116;2022-10-24T10:32:37;4.75;;;1.85;;
18507;SDS011;9383;50.928;12.116;2022-10-24T10:35:19;2.25;;;1.60;;
18507;SDS011;9383;50.928;12.116;2022-10-24T10:40:45;2.30;;;1.60;;
18507;SDS011;9383;50.928;12.116;2022-10-24T10:51:42;3.75;;;1.70;;
18507;SDS011;9383;50.928;12.116;2022-10-24T10:57:23;2.05;;;1.50;;
18507;SDS011;9383;50.928;12.116;2022-10-24T11:00:10;2.70;;;1.77;;
18507;SDS011;9383;50.928;12.116;2022-10-24T11:03:01;2.22;;;1.30;;
18507;SDS011;9383;50.928;12.116;2022-10-24T11:11:40;1.60;;;1.40;;
18507;SDS011;9383;50.928;12.116;2022-10-24T11:14:21;3.50;;;1.52;;
18507;SDS011;9383;50.928;12.116;2022-10-24T11:16:56;3.25;;;1.70;;
18507;SDS011;9383;50.928;12.116;2022-10-24T11:19:29;2.55;;;1.30;;
18507;SDS011;9383;50.928;12.116;2022-10-24T11:22:25;2.22;;;1.60;;
18507;SDS011;9383;50.928;12.116;2022-10-24T11:27:49;3.47;;;1.58;;
18507;SDS011;9383;50.928;12.116;2022-10-24T11:30:35;5.20;;;1.50;;
18507;SDS011;9383;50.928;12.116;2022-10-24T11:33:16;2.88;;;1.15;;
18507;SDS011;9383;50.928;12.116;2022-10-24T11:35:58;2.15;;;1.23;;
18507;SDS011;9383;50.928;12.116;2022-10-24T11:38:32;5.18;;;1.73;;
18507;SDS011;9383;50.928;12.116;2022-10-24T11:41:16;3.10;;;1.48;;
18507;SDS011;9383;50.928;12.116;2022-10-24T11:44:04;3.47;;;1.27;;
18507;SDS011;9383;50.928;12.116;2022-10-24T11:46:58;1.33;;;1.23;;
18507;SDS011;9383;50.928;12.116;2022-10-24T11:49:40;1.75;;;1.02;;
18507;SDS011;9383;50.928;12.116;2022-10-24T11:52:22;1.15;;;1.10;;
18507;SDS011;9383;50.928;12.116;2022-10-24T11:55:00;1.48;;;1.00;;
18507;SDS011;9383;50.928;12.116;2022-10-24T11:57:31;1.85;;;1.10;;
18507;SDS011;9383;50.928;12.116;2022-10-24T12:00:00;4.95;;;1.15;;
18507;SDS011;9383;50.928;12.116;2022-10-24T12:02:31;2.00;;;1.13;;
18507;SDS011;9383;50.928;12.116;2022-10-24T12:13:39;4.82;;;0.98;;
18507;SDS011;9383;50.928;12.116;2022-10-24T12:18:59;2.17;;;0.88;;
18507;SDS011;9383;50.928;12.116;2022-10-24T12:21:40;3.15;;;1.10;;
18507;SDS011;9383;50.928;12.116;2022-10-24T12:24:48;2.47;;;1.10;;
18507;SDS011;9383;50.928;12.116;2022-10-24T12:29:59;3.00;;;1.20;;
18507;SDS011;9383;50.928;12.116;2022-10-24T12:32:42;3.92;;;1.00;;
18507;SDS011;9383;50.928;12.116;2022-10-24T12:38:01;3.55;;;1.10;;
18507;SDS011;9383;50.928;12.116;2022-10-24T12:46:50;1.90;;;0.95;;
18507;SDS011;9383;50.928;12.116;2022-10-24T12:59:19;1.48;;;1.00;;
18507;SDS011;9383;50.928;12.116;2022-10-24T13:13:07;1.48;;;1.00;;
18507;SDS011;9383;50.928;12.116;2022-10-24T13:18:33;4.40;;;1.13;;
18507;SDS011;9383;50.928;12.116;2022-10-24T13:21:18;1.27;;;0.80;;
18507;SDS011;9383;50.928;12.116;2022-10-24T13:24:07;1.75;;;1.02;;
18507;SDS011;9383;50.928;12.116;2022-10-24T13:26:35;3.33;;;1.13;;
18507;SDS011;9383;50.928;12.116;2022-10-24T13:29:10;1.55;;;1.10;;
18507;SDS011;9383;50.928;12.116;2022-10-24T13:32:37;3.13;;;1.00;;
18507;SDS011;9383;50.928;12.116;2022-10-24T13:37:26;0.82;;;0.75;;
18507;SDS011;9383;50.928;12.116;2022-10-24T13:42:58;1.63;;;0.90;;
18507;SDS011;9383;50.928;12.116;2022-10-24T13:48:27;2.08;;;0.95;;
18507;SDS011;9383;50.928;12.116;2022-10-24T13:51:07;1.85;;;0.70;;
18507;SDS011;9383;50.928;12.116;2022-10-24T13:54:01;2.15;;;1.38;;
18507;SDS011;9383;50.928;12.116;2022-10-24T13:56:37;1.75;;;1.00;;
18507;SDS011;9383;50.928;12.116;2022-10-24T13:59:24;1.20;;;1.02;;
18507;SDS011;9383;50.928;12.116;2022-10-24T14:02:06;1.23;;;1.02;;
18507;SDS011;9383;50.928;12.116;2022-10-24T14:04:46;1.20;;;1.10;;
18507;SDS011;9383;50.928;12.116;2022-10-24T14:07:18;1.20;;;1.00;;
18507;SDS011;9383;50.928;12.116;2022-10-24T14:09:52;2.28;;;0.80;;
18507;SDS011;9383;50.928;12.116;2022-10-24T14:12:23;1.40;;;1.00;;
18507;SDS011;9383;50.928;12.116;2022-10-24T14:14:52;2.42;;;1.27;;
18507;SDS011;9383;50.928;12.116;2022-10-24T14:17:22;1.35;;;1.00;;
18507;SDS011;9383;50.928;12.116;2022-10-24T14:19:58;1.00;;;0.82;;
18507;SDS011;9383;50.928;12.116;2022-10-24T14:22:45;1.65;;;0.98;;
18507;SDS011;9383;50.928;12.116;2022-10-24T14:25:30;1.40;;;0.90;;
18507;SDS011;9383;50.928;12.116;2022-10-24T14:28:13;2.60;;;1.20;;
18507;SDS011;9383;50.928;12.116;2022-10-24T14:30:50;2.88;;;1.10;;
18507;SDS011;9383;50.928;12.116;2022-10-24T14:33:20;3.10;;;1.20;;
18507;SDS011;9383;50.928;12.116;2022-10-24T14:35:52;1.33;;;1.13;;
18507;SDS011;9383;50.928;12.116;2022-10-24T14:38:21;2.17;;;1.25;;
18507;SDS011;9383;50.928;12.116;2022-10-24T14:40:49;1.80;;;1.10;;
18507;SDS011;9383;50.928;12.116;2022-10-24T14:43:21;1.42;;;1.17;;
18507;SDS011;9383;50.928;12.116;2022-10-24T14:46:00;3.88;;;1.40;;
18507;SDS011;9383;50.928;12.116;2022-10-24T14:48:32;1.60;;;1.30;;
18507;SDS011;9383;50.928;12.116;2022-10-24T14:51:00;2.80;;;1.55;;
18507;SDS011;9383;50.928;12.116;2022-10-24T14:53:31;4.07;;;1.52;;
18507;SDS011;9383;50.928;12.116;2022-10-24T14:55:58;3.28;;;1.30;;
18507;SDS011;9383;50.928;12.116;2022-10-24T14:58:27;3.75;;;1.40;;
18507;SDS011;9383;50.928;12.116;2022-10-24T15:00:56;3.08;;;1.45;;
18507;SDS011;9383;50.928;12.116;2022-10-24T15:03:24;2.80;;;1.30;;
18507;SDS011;9383;50.928;12.116;2022-10-24T15:06:10;1.92;;;1.38;;
18507;SDS011;9383;50.928;12.116;2022-10-24T15:08:58;1.88;;;1.25;;
18507;SDS011;9383;50.928;12.116;2022-10-24T15:11:39;2.80;;;1.48;;
18507;SDS011;9383;50.928;12.116;2022-10-24T15:17:05;1.38;;;1.00;;
18507;SDS011;9383;50.928;12.116;2022-10-24T15:19:46;3.42;;;1.55;;
18507;SDS011;9383;50.928;12.116;2022-10-24T15:22:23;2.67;;;1.63;;
18507;SDS011;9383;50.928;12.116;2022-10-24T15:25:05;2.28;;;1.30;;
18507;SDS011;9383;50.928;12.116;2022-10-24T15:27:43;2.05;;;1.30;;
18507;SDS011;9383;50.928;12.116;2022-10-24T15:30:14;1.92;;;1.38;;
18507;SDS011;9383;50.928;12.116;2022-10-24T15:32:43;1.35;;;1.20;;
18507;SDS011;9383;50.928;12.116;2022-10-24T15:35:11;2.80;;;1.55;;
18507;SDS011;9383;50.928;12.116;2022-10-24T15:37:38;1.75;;;1.45;;
18507;SDS011;9383;50.928;12.116;2022-10-24T15:40:16;2.80;;;1.50;;
18507;SDS011;9383;50.928;12.116;2022-10-24T15:42:45;3.47;;;1.58;;
18507;SDS011;9383;50.928;12.116;2022-10-24T15:45:12;4.00;;;1.50;;
18507;SDS011;9383;50.928;12.116;2022-10-24T15:47:40;4.90;;;1.42;;
18507;SDS011;9383;50.928;12.116;2022-10-24T15:50:06;2.65;;;1.45;;
18507;SDS011;9383;50.928;12.116;2022-10-24T15:52:34;1.67;;;1.35;;
18507;SDS011;9383;50.928;12.116;2022-10-24T15:55:01;1.98;;;1.40;;
18507;SDS011;9383;50.928;12.116;2022-10-24T15:57:27;2.42;;;1.30;;
18507;SDS011;9383;50.928;12.116;2022-10-24T15:59:54;2.55;;;1.42;;
18507;SDS011;9383;50.928;12.116;2022-10-24T16:02:22;2.53;;;1.83;;
18507;SDS011;9383;50.928;12.116;2022-10-24T16:04:49;2.33;;;1.73;;
18507;SDS011;9383;50.928;12.116;2022-10-24T16:07:16;1.88;;;1.65;;
18507;SDS011;9383;50.928;12.116;2022-10-24T16:09:43;4.10;;;1.98;;
18507;SDS011;9383;50.928;12.116;2022-10-24T16:12:13;9.32;;;2.58;;
18507;SDS011;9383;50.928;12.116;2022-10-24T16:14:39;3.22;;;1.70;;
18507;SDS011;9383;50.928;12.116;2022-10-24T16:17:06;4.82;;;1.42;;
18507;SDS011;9383;50.928;12.116;2022-10-24T16:19:34;2.72;;;1.70;;
18507;SDS011;9383;50.928;12.116;2022-10-24T16:22:02;2.13;;;1.90;;
18507;SDS011;9383;50.928;12.116;2022-10-24T16:24:33;2.85;;;1.60;;
18507;SDS011;9383;50.928;12.116;2022-10-24T16:27:02;3.95;;;1.77;;
18507;SDS011;9383;50.928;12.116;2022-10-24T16:29:28;5.03;;;2.00;;
18507;SDS011;9383;50.928;12.116;2022-10-24T16:31:55;2.00;;;1.80;;
18507;SDS011;9383;50.928;12.116;2022-10-24T16:34:22;3.28;;;1.75;;
18507;SDS011;9383;50.928;12.116;2022-10-24T16:36:53;3.90;;;2.17;;
18507;SDS011;9383;50.928;12.116;2022-10-24T16:39:20;3.00;;;1.85;;
18507;SDS011;9383;50.928;12.116;2022-10-24T16:41:53;2.40;;;1.95;;
18507;SDS011;9383;50.928;12.116;2022-10-24T16:44:20;8.35;;;4.95;;
18507;SDS011;9383;50.928;12.116;2022-10-24T16:46:47;5.10;;;4.43;;
18507;SDS011;9383;50.928;12.116;2022-10-24T16:49:18;3.08;;;2.17;;
18507;SDS011;9383;50.928;12.116;2022-10-24T16:51:45;7.72;;;2.20;;
18507;SDS011;9383;50.928;12.116;2022-10-24T16:54:12;2.75;;;1.90;;
18507;SDS011;9383;50.928;12.116;2022-10-24T16:56:39;3.13;;;2.00;;
18507;SDS011;9383;50.928;12.116;2022-10-24T16:59:05;4.13;;;1.77;;
18507;SDS011;9383;50.928;12.116;2022-10-24T17:01:32;3.70;;;1.80;;
18507;SDS011;9383;50.928;12.116;2022-10-24T17:03:59;3.72;;;1.70;;
18507;SDS011;9383;50.928;12.116;2022-10-24T17:06:26;4.10;;;1.77;;
18507;SDS011;9383;50.928;12.116;2022-10-24T17:08:52;3.90;;;2.15;;
18507;SDS011;9383;50.928;12.116;2022-10-24T17:11:19;4.22;;;1.77;;
18507;SDS011;9383;50.928;12.116;2022-10-24T17:13:45;4.03;;;1.65;;